sensor_id;sensor_type;location;lat;lon;timestamp;P1;durP1;ratioP1;P2;durP2;ratioP2
67986;SDS011;54767;53.800;15.956;2022-08-19T00:01:56;9.90;;;8.30;;
67986;SDS011;54767;53.800;15.956;2022-08-19T00:04:30;11.80;;;8.40;;
67986;SDS011;54767;53.800;15.956;2022-08-19T00:07:03;9.80;;;8.80;;
67986;SDS011;54767;53.800;15.956;2022-08-19T00:09:31;9.80;;;8.50;;
67986;SDS011;54767;53.800;15.956;2022-08-19T00:11:59;10.30;;;8.50;;
67986;SDS011;54767;53.800;15.956;2022-08-19T00:14:27;12.90;;;9.90;;
67986;SDS011;54767;53.800;15.956;2022-08-19T00:16:57;15.00;;;10.80;;
67986;SDS011;54767;53.800;15.956;2022-08-19T00:19:25;15.30;;;10.30;;
67986;SDS011;54767;53.800;15.956;2022-08-19T00:21:54;15.40;;;11.10;;
67986;SDS011;54767;53.800;15.956;2022-08-19T00:24:23;14.20;;;10.60;;
67986;SDS011;54767;53.800;15.956;2022-08-19T00:26:50;11.20;;;9.90;;
67986;SDS011;54767;53.800;15.956;2022-08-19T00:29:19;11.30;;;9.50;;
67986;SDS011;54767;53.800;15.956;2022-08-19T00:31:47;11.90;;;10.30;;
67986;SDS011;54767;53.800;15.956;2022-08-19T00:34:17;12.90;;;10.30;;
67986;SDS011;54767;53.800;15.956;2022-08-19T00:36:44;13.10;;;10.40;;
67986;SDS011;54767;53.800;15.956;2022-08-19T00:39:12;13.40;;;10.90;;
67986;SDS011;54767;53.800;15.956;2022-08-19T00:41:41;11.90;;;10.00;;
67986;SDS011;54767;53.800;15.956;2022-08-19T00:44:11;13.40;;;10.50;;
67986;SDS011;54767;53.800;15.956;2022-08-19T00:46:41;11.90;;;10.40;;
67986;SDS011;54767;53.800;15.956;2022-08-19T00:49:22;13.00;;;10.10;;
67986;SDS011;54767;53.800;15.956;2022-08-19T00:52:04;11.90;;;10.70;;
67986;SDS011;54767;53.800;15.956;2022-08-19T00:54:36;12.30;;;10.60;;
67986;SDS011;54767;53.800;15.956;2022-08-19T00:57:06;13.60;;;10.70;;
67986;SDS011;54767;53.800;15.956;2022-08-19T00:59:38;13.30;;;10.80;;
67986;SDS011;54767;53.800;15.956;2022-08-19T01:02:28;13.10;;;10.90;;
67986;SDS011;54767;53.800;15.956;2022-08-19T01:04:57;12.50;;;10.50;;
67986;SDS011;54767;53.800;15.956;2022-08-19T01:07:27;13.40;;;11.10;;
67986;SDS011;54767;53.800;15.956;2022-08-19T01:10:02;12.30;;;10.70;;
67986;SDS011;54767;53.800;15.956;2022-08-19T01:12:30;11.50;;;10.20;;
67986;SDS011;54767;53.800;15.956;2022-08-19T01:14:57;12.90;;;11.00;;
67986;SDS011;54767;53.800;15.956;2022-08-19T01:17:26;13.60;;;11.10;;
67986;SDS011;54767;53.800;15.956;2022-08-19T01:19:54;12.00;;;10.70;;
67986;SDS011;54767;53.800;15.956;2022-08-19T01:25:00;12.30;;;10.40;;
67986;SDS011;54767;53.800;15.956;2022-08-19T01:27:36;13.30;;;10.70;;
67986;SDS011;54767;53.800;15.956;2022-08-19T01:30:14;13.20;;;10.90;;
67986;SDS011;54767;53.800;15.956;2022-08-19T01:32:44;13.10;;;10.70;;
67986;SDS011;54767;53.800;15.956;2022-08-19T01:35:13;12.60;;;11.30;;
67986;SDS011;54767;53.800;15.956;2022-08-19T01:37:47;12.50;;;10.60;;
67986;SDS011;54767;53.800;15.956;2022-08-19T01:40:20;13.40;;;11.30;;
67986;SDS011;54767;53.800;15.956;2022-08-19T01:45:17;12.40;;;10.90;;
67986;SDS011;54767;53.800;15.956;2022-08-19T01:47:45;13.00;;;10.90;;
67986;SDS011;54767;53.800;15.956;2022-08-19T01:50:29;12.90;;;11.30;;
67986;SDS011;54767;53.800;15.956;2022-08-19T01:55:34;14.30;;;11.10;;
67986;SDS011;54767;53.800;15.956;2022-08-19T01:58:17;14.40;;;11.70;;
67986;SDS011;54767;53.800;15.956;2022-08-19T02:00:47;15.00;;;11.50;;
67986;SDS011;54767;53.800;15.956;2022-08-19T02:03:15;13.20;;;11.30;;
67986;SDS011;54767;53.800;15.956;2022-08-19T02:05:43;13.90;;;11.20;;
67986;SDS011;54767;53.800;15.956;2022-08-19T02:08:11;12.30;;;10.80;;
67986;SDS011;54767;53.800;15.956;2022-08-19T02:10:42;13.30;;;11.00;;
67986;SDS011;54767;53.800;15.956;2022-08-19T02:13:10;13.80;;;11.80;;
67986;SDS011;54767;53.800;15.956;2022-08-19T02:15:40;14.60;;;11.00;;
67986;SDS011;54767;53.800;15.956;2022-08-19T02:18:07;14.10;;;11.40;;
67986;SDS011;54767;53.800;15.956;2022-08-19T02:20:35;13.80;;;11.80;;
67986;SDS011;54767;53.800;15.956;2022-08-19T02:23:03;13.60;;;11.00;;
67986;SDS011;54767;53.800;15.956;2022-08-19T02:25:30;13.00;;;11.30;;
67986;SDS011;54767;53.800;15.956;2022-08-19T02:27:57;12.80;;;11.40;;
67986;SDS011;54767;53.800;15.956;2022-08-19T02:30:24;13.70;;;11.10;;
67986;SDS011;54767;53.800;15.956;2022-08-19T02:32:52;12.30;;;11.00;;
67986;SDS011;54767;53.800;15.956;2022-08-19T02:35:20;13.80;;;11.10;;
67986;SDS011;54767;53.800;15.956;2022-08-19T02:37:48;13.10;;;11.00;;
67986;SDS011;54767;53.800;15.956;2022-08-19T02:40:34;13.30;;;11.50;;
67986;SDS011;54767;53.800;15.956;2022-08-19T02:43:03;15.90;;;12.00;;
67986;SDS011;54767;53.800;15.956;2022-08-19T02:45:34;13.90;;;11.70;;
67986;SDS011;54767;53.800;15.956;2022-08-19T02:48:07;14.90;;;12.10;;
67986;SDS011;54767;53.800;15.956;2022-08-19T02:50:49;14.50;;;12.10;;
67986;SDS011;54767;53.800;15.956;2022-08-19T02:53:22;12.20;;;10.90;;
67986;SDS011;54767;53.800;15.956;2022-08-19T02:58:19;13.30;;;10.80;;
67986;SDS011;54767;53.800;15.956;2022-08-19T03:00:49;14.70;;;11.90;;
67986;SDS011;54767;53.800;15.956;2022-08-19T03:03:19;14.80;;;12.20;;
67986;SDS011;54767;53.800;15.956;2022-08-19T03:05:47;14.00;;;12.00;;
67986;SDS011;54767;53.800;15.956;2022-08-19T03:08:23;13.50;;;11.90;;
67986;SDS011;54767;53.800;15.956;2022-08-19T03:10:52;14.50;;;11.90;;
67986;SDS011;54767;53.800;15.956;2022-08-19T03:13:20;12.50;;;11.20;;
67986;SDS011;54767;53.800;15.956;2022-08-19T03:18:16;13.60;;;11.30;;
67986;SDS011;54767;53.800;15.956;2022-08-19T03:20:45;15.60;;;12.60;;
67986;SDS011;54767;53.800;15.956;2022-08-19T03:23:15;14.50;;;12.70;;
67986;SDS011;54767;53.800;15.956;2022-08-19T03:25:45;18.50;;;12.70;;
67986;SDS011;54767;53.800;15.956;2022-08-19T03:28:36;17.30;;;13.20;;
67986;SDS011;54767;53.800;15.956;2022-08-19T03:31:05;16.40;;;12.30;;
67986;SDS011;54767;53.800;15.956;2022-08-19T03:33:55;14.00;;;12.20;;
67986;SDS011;54767;53.800;15.956;2022-08-19T03:36:24;15.20;;;12.70;;
67986;SDS011;54767;53.800;15.956;2022-08-19T03:38:56;16.20;;;13.10;;
67986;SDS011;54767;53.800;15.956;2022-08-19T03:41:27;13.60;;;12.10;;
67986;SDS011;54767;53.800;15.956;2022-08-19T03:44:11;13.50;;;11.90;;
67986;SDS011;54767;53.800;15.956;2022-08-19T03:46:45;13.90;;;12.20;;
67986;SDS011;54767;53.800;15.956;2022-08-19T03:51:41;17.30;;;13.30;;
67986;SDS011;54767;53.800;15.956;2022-08-19T03:54:10;15.10;;;13.30;;
67986;SDS011;54767;53.800;15.956;2022-08-19T03:56:40;14.70;;;13.10;;
67986;SDS011;54767;53.800;15.956;2022-08-19T03:59:11;17.00;;;13.60;;
67986;SDS011;54767;53.800;15.956;2022-08-19T04:01:41;17.10;;;14.20;;
67986;SDS011;54767;53.800;15.956;2022-08-19T04:04:10;16.40;;;14.70;;
67986;SDS011;54767;53.800;15.956;2022-08-19T04:06:37;16.00;;;13.30;;
67986;SDS011;54767;53.800;15.956;2022-08-19T04:09:07;16.10;;;14.40;;
67986;SDS011;54767;53.800;15.956;2022-08-19T04:14:11;15.80;;;14.20;;
67986;SDS011;54767;53.800;15.956;2022-08-19T04:16:41;18.70;;;15.30;;
67986;SDS011;54767;53.800;15.956;2022-08-19T04:19:10;21.10;;;15.50;;
67986;SDS011;54767;53.800;15.956;2022-08-19T04:21:37;19.90;;;15.70;;
67986;SDS011;54767;53.800;15.956;2022-08-19T04:24:05;19.10;;;15.70;;
67986;SDS011;54767;53.800;15.956;2022-08-19T04:26:34;17.40;;;15.30;;
67986;SDS011;54767;53.800;15.956;2022-08-19T04:29:04;18.70;;;15.10;;
67986;SDS011;54767;53.800;15.956;2022-08-19T04:31:39;16.40;;;14.70;;
67986;SDS011;54767;53.800;15.956;2022-08-19T04:34:08;16.00;;;14.30;;
67986;SDS011;54767;53.800;15.956;2022-08-19T04:36:39;17.70;;;15.30;;
67986;SDS011;54767;53.800;15.956;2022-08-19T04:39:09;18.60;;;16.30;;
67986;SDS011;54767;53.800;15.956;2022-08-19T04:41:38;17.40;;;14.90;;
67986;SDS011;54767;53.800;15.956;2022-08-19T04:44:24;18.30;;;15.90;;
67986;SDS011;54767;53.800;15.956;2022-08-19T04:46:52;17.70;;;15.90;;
67986;SDS011;54767;53.800;15.956;2022-08-19T04:49:20;18.30;;;16.40;;
67986;SDS011;54767;53.800;15.956;2022-08-19T04:51:50;19.40;;;17.10;;
67986;SDS011;54767;53.800;15.956;2022-08-19T04:54:22;20.30;;;17.40;;
67986;SDS011;54767;53.800;15.956;2022-08-19T04:57:08;19.70;;;17.60;;
67986;SDS011;54767;53.800;15.956;2022-08-19T04:59:36;19.10;;;16.90;;
67986;SDS011;54767;53.800;15.956;2022-08-19T05:02:04;19.20;;;17.20;;
67986;SDS011;54767;53.800;15.956;2022-08-19T05:04:35;18.20;;;16.30;;
67986;SDS011;54767;53.800;15.956;2022-08-19T05:07:06;19.20;;;17.20;;
67986;SDS011;54767;53.800;15.956;2022-08-19T05:09:34;18.50;;;16.50;;
67986;SDS011;54767;53.800;15.956;2022-08-19T05:12:21;18.20;;;16.30;;
67986;SDS011;54767;53.800;15.956;2022-08-19T05:14:55;18.60;;;16.70;;
67986;SDS011;54767;53.800;15.956;2022-08-19T05:17:25;19.90;;;17.60;;
67986;SDS011;54767;53.800;15.956;2022-08-19T05:19:56;18.30;;;16.40;;
67986;SDS011;54767;53.800;15.956;2022-08-19T05:22:43;19.80;;;17.10;;
67986;SDS011;54767;53.800;15.956;2022-08-19T05:25:13;18.60;;;16.40;;
67986;SDS011;54767;53.800;15.956;2022-08-19T05:27:45;19.30;;;16.70;;
67986;SDS011;54767;53.800;15.956;2022-08-19T05:30:13;19.80;;;17.70;;
67986;SDS011;54767;53.800;15.956;2022-08-19T05:32:40;19.10;;;16.40;;
67986;SDS011;54767;53.800;15.956;2022-08-19T05:35:07;18.90;;;16.70;;
67986;SDS011;54767;53.800;15.956;2022-08-19T05:37:36;18.80;;;17.00;;
67986;SDS011;54767;53.800;15.956;2022-08-19T05:40:03;18.90;;;16.30;;
67986;SDS011;54767;53.800;15.956;2022-08-19T05:42:32;19.40;;;16.30;;
67986;SDS011;54767;53.800;15.956;2022-08-19T05:44:59;20.00;;;16.00;;
67986;SDS011;54767;53.800;15.956;2022-08-19T05:47:26;17.30;;;15.40;;
67986;SDS011;54767;53.800;15.956;2022-08-19T05:49:53;18.20;;;16.30;;
67986;SDS011;54767;53.800;15.956;2022-08-19T05:52:21;18.30;;;16.40;;
67986;SDS011;54767;53.800;15.956;2022-08-19T05:54:52;19.80;;;16.50;;
67986;SDS011;54767;53.800;15.956;2022-08-19T05:57:23;18.30;;;16.50;;
67986;SDS011;54767;53.800;15.956;2022-08-19T05:59:51;19.50;;;17.40;;
67986;SDS011;54767;53.800;15.956;2022-08-19T06:02:27;21.30;;;17.00;;
67986;SDS011;54767;53.800;15.956;2022-08-19T06:04:57;17.80;;;15.80;;
67986;SDS011;54767;53.800;15.956;2022-08-19T06:07:24;19.90;;;16.60;;
67986;SDS011;54767;53.800;15.956;2022-08-19T06:09:51;17.60;;;15.50;;
67986;SDS011;54767;53.800;15.956;2022-08-19T06:12:28;18.10;;;16.20;;
67986;SDS011;54767;53.800;15.956;2022-08-19T06:15:04;19.20;;;17.00;;
67986;SDS011;54767;53.800;15.956;2022-08-19T06:17:34;18.40;;;16.30;;
67986;SDS011;54767;53.800;15.956;2022-08-19T06:20:03;18.80;;;16.60;;
67986;SDS011;54767;53.800;15.956;2022-08-19T06:22:36;18.20;;;16.20;;
67986;SDS011;54767;53.800;15.956;2022-08-19T06:25:05;17.90;;;16.10;;
67986;SDS011;54767;53.800;15.956;2022-08-19T06:27:33;16.80;;;15.10;;
67986;SDS011;54767;53.800;15.956;2022-08-19T06:30:01;17.90;;;16.10;;
67986;SDS011;54767;53.800;15.956;2022-08-19T06:34:57;17.20;;;15.40;;
67986;SDS011;54767;53.800;15.956;2022-08-19T06:37:24;18.40;;;16.40;;
67986;SDS011;54767;53.800;15.956;2022-08-19T06:39:51;19.10;;;17.10;;
67986;SDS011;54767;53.800;15.956;2022-08-19T06:42:18;19.00;;;16.80;;
67986;SDS011;54767;53.800;15.956;2022-08-19T06:44:50;19.40;;;15.90;;
67986;SDS011;54767;53.800;15.956;2022-08-19T06:47:20;18.60;;;15.50;;
67986;SDS011;54767;53.800;15.956;2022-08-19T06:49:58;17.70;;;15.20;;
67986;SDS011;54767;53.800;15.956;2022-08-19T06:52:32;17.90;;;14.90;;
67986;SDS011;54767;53.800;15.956;2022-08-19T06:55:03;17.20;;;15.30;;
67986;SDS011;54767;53.800;15.956;2022-08-19T06:57:32;17.90;;;16.10;;
67986;SDS011;54767;53.800;15.956;2022-08-19T07:00:00;19.00;;;15.40;;
67986;SDS011;54767;53.800;15.956;2022-08-19T07:02:27;17.50;;;15.70;;
67986;SDS011;54767;53.800;15.956;2022-08-19T07:04:55;19.20;;;16.20;;
67986;SDS011;54767;53.800;15.956;2022-08-19T07:07:26;17.30;;;15.50;;
67986;SDS011;54767;53.800;15.956;2022-08-19T07:09:53;18.50;;;16.50;;
67986;SDS011;54767;53.800;15.956;2022-08-19T07:12:28;17.20;;;15.50;;
67986;SDS011;54767;53.800;15.956;2022-08-19T07:15:04;16.60;;;14.90;;
67986;SDS011;54767;53.800;15.956;2022-08-19T07:17:35;17.00;;;14.80;;
67986;SDS011;54767;53.800;15.956;2022-08-19T07:20:05;16.50;;;14.80;;
67986;SDS011;54767;53.800;15.956;2022-08-19T07:22:36;16.90;;;15.10;;
67986;SDS011;54767;53.800;15.956;2022-08-19T07:25:05;18.20;;;14.70;;
67986;SDS011;54767;53.800;15.956;2022-08-19T07:27:34;16.10;;;14.40;;
67986;SDS011;54767;53.800;15.956;2022-08-19T07:30:02;16.20;;;14.50;;
67986;SDS011;54767;53.800;15.956;2022-08-19T07:32:31;16.00;;;14.40;;
67986;SDS011;54767;53.800;15.956;2022-08-19T07:34:58;18.70;;;14.80;;
67986;SDS011;54767;53.800;15.956;2022-08-19T07:37:27;15.80;;;13.90;;
67986;SDS011;54767;53.800;15.956;2022-08-19T07:40:00;15.70;;;14.10;;
67986;SDS011;54767;53.800;15.956;2022-08-19T07:42:38;14.50;;;13.00;;
67986;SDS011;54767;53.800;15.956;2022-08-19T07:45:06;15.10;;;13.30;;
67986;SDS011;54767;53.800;15.956;2022-08-19T07:47:34;15.80;;;13.30;;
67986;SDS011;54767;53.800;15.956;2022-08-19T07:50:17;15.60;;;14.00;;
67986;SDS011;54767;53.800;15.956;2022-08-19T07:52:47;17.70;;;13.40;;
67986;SDS011;54767;53.800;15.956;2022-08-19T07:55:18;15.50;;;13.40;;
67986;SDS011;54767;53.800;15.956;2022-08-19T07:58:06;15.90;;;13.40;;
67986;SDS011;54767;53.800;15.956;2022-08-19T08:05:54;19.10;;;14.10;;
67986;SDS011;54767;53.800;15.956;2022-08-19T08:09:54;15.80;;;13.80;;
67986;SDS011;54767;53.800;15.956;2022-08-19T08:12:59;16.60;;;13.70;;
67986;SDS011;54767;53.800;15.956;2022-08-19T08:16:04;16.10;;;13.60;;
67986;SDS011;54767;53.800;15.956;2022-08-19T08:19:26;14.90;;;13.20;;
67986;SDS011;54767;53.800;15.956;2022-08-19T08:22:50;15.00;;;13.40;;
67986;SDS011;54767;53.800;15.956;2022-08-19T08:25:47;16.30;;;13.50;;
67986;SDS011;54767;53.800;15.956;2022-08-19T08:33:39;15.40;;;13.80;;
67986;SDS011;54767;53.800;15.956;2022-08-19T08:38:13;16.70;;;14.40;;
67986;SDS011;54767;53.800;15.956;2022-08-19T08:46:39;16.80;;;15.10;;
67986;SDS011;54767;53.800;15.956;2022-08-19T08:49:17;15.70;;;14.10;;
67986;SDS011;54767;53.800;15.956;2022-08-19T08:54:35;18.40;;;14.10;;
67986;SDS011;54767;53.800;15.956;2022-08-19T09:00:09;16.70;;;13.80;;
67986;SDS011;54767;53.800;15.956;2022-08-19T09:02:43;15.90;;;14.30;;
67986;SDS011;54767;53.800;15.956;2022-08-19T09:05:17;15.80;;;13.30;;
67986;SDS011;54767;53.800;15.956;2022-08-19T09:10:39;16.40;;;12.70;;
67986;SDS011;54767;53.800;15.956;2022-08-19T09:15:54;14.40;;;12.70;;
67986;SDS011;54767;53.800;15.956;2022-08-19T09:18:24;14.10;;;12.70;;
67986;SDS011;54767;53.800;15.956;2022-08-19T09:20:55;14.30;;;12.70;;
67986;SDS011;54767;53.800;15.956;2022-08-19T09:23:23;17.20;;;12.10;;
67986;SDS011;54767;53.800;15.956;2022-08-19T09:25:53;13.70;;;12.10;;
67986;SDS011;54767;53.800;15.956;2022-08-19T09:28:21;15.40;;;12.90;;
67986;SDS011;54767;53.800;15.956;2022-08-19T09:30:53;14.70;;;13.10;;
67986;SDS011;54767;53.800;15.956;2022-08-19T09:33:20;14.40;;;12.20;;
67986;SDS011;54767;53.800;15.956;2022-08-19T09:35:49;13.90;;;12.00;;
67986;SDS011;54767;53.800;15.956;2022-08-19T09:38:20;16.90;;;12.80;;
67986;SDS011;54767;53.800;15.956;2022-08-19T09:40:48;14.80;;;12.90;;
67986;SDS011;54767;53.800;15.956;2022-08-19T09:43:16;14.30;;;11.90;;
67986;SDS011;54767;53.800;15.956;2022-08-19T09:46:04;15.00;;;11.70;;
67986;SDS011;54767;53.800;15.956;2022-08-19T09:48:32;14.80;;;11.60;;
67986;SDS011;54767;53.800;15.956;2022-08-19T09:51:06;14.70;;;11.60;;
67986;SDS011;54767;53.800;15.956;2022-08-19T09:53:38;13.50;;;12.00;;
67986;SDS011;54767;53.800;15.956;2022-08-19T09:56:06;12.90;;;11.40;;
67986;SDS011;54767;53.800;15.956;2022-08-19T09:58:35;13.90;;;12.00;;
67986;SDS011;54767;53.800;15.956;2022-08-19T10:01:04;13.40;;;12.00;;
67986;SDS011;54767;53.800;15.956;2022-08-19T10:03:33;13.60;;;11.90;;
67986;SDS011;54767;53.800;15.956;2022-08-19T10:06:02;20.00;;;12.30;;
67986;SDS011;54767;53.800;15.956;2022-08-19T10:08:40;14.30;;;12.10;;
67986;SDS011;54767;53.800;15.956;2022-08-19T10:11:17;16.60;;;11.80;;
67986;SDS011;54767;53.800;15.956;2022-08-19T10:14:03;19.50;;;12.00;;
67986;SDS011;54767;53.800;15.956;2022-08-19T10:16:35;17.30;;;11.20;;
67986;SDS011;54767;53.800;15.956;2022-08-19T10:19:05;17.10;;;11.50;;
67986;SDS011;54767;53.800;15.956;2022-08-19T10:21:33;17.60;;;11.60;;
67986;SDS011;54767;53.800;15.956;2022-08-19T10:24:02;14.90;;;11.70;;
67986;SDS011;54767;53.800;15.956;2022-08-19T10:26:35;13.60;;;11.70;;
67986;SDS011;54767;53.800;15.956;2022-08-19T10:29:04;22.60;;;12.60;;
67986;SDS011;54767;53.800;15.956;2022-08-19T10:31:35;19.60;;;12.50;;
67986;SDS011;54767;53.800;15.956;2022-08-19T10:34:22;16.80;;;11.90;;
67986;SDS011;54767;53.800;15.956;2022-08-19T10:36:55;15.30;;;12.10;;
67986;SDS011;54767;53.800;15.956;2022-08-19T10:39:28;15.30;;;12.20;;
67986;SDS011;54767;53.800;15.956;2022-08-19T10:42:09;16.90;;;12.30;;
67986;SDS011;54767;53.800;15.956;2022-08-19T10:44:37;15.90;;;12.10;;
67986;SDS011;54767;53.800;15.956;2022-08-19T10:47:04;16.10;;;12.80;;
67986;SDS011;54767;53.800;15.956;2022-08-19T10:49:44;14.80;;;12.00;;
67986;SDS011;54767;53.800;15.956;2022-08-19T10:52:29;15.40;;;12.70;;
67986;SDS011;54767;53.800;15.956;2022-08-19T10:55:06;14.00;;;12.20;;
67986;SDS011;54767;53.800;15.956;2022-08-19T10:57:55;17.40;;;12.10;;
67986;SDS011;54767;53.800;15.956;2022-08-19T11:00:29;13.50;;;11.80;;
67986;SDS011;54767;53.800;15.956;2022-08-19T11:02:57;15.30;;;12.10;;
67986;SDS011;54767;53.800;15.956;2022-08-19T11:05:24;15.00;;;11.70;;
67986;SDS011;54767;53.800;15.956;2022-08-19T11:07:51;14.30;;;11.50;;
67986;SDS011;54767;53.800;15.956;2022-08-19T11:10:19;13.40;;;11.40;;
67986;SDS011;54767;53.800;15.956;2022-08-19T11:12:48;18.80;;;11.80;;
67986;SDS011;54767;53.800;15.956;2022-08-19T11:15:19;14.10;;;11.60;;
67986;SDS011;54767;53.800;15.956;2022-08-19T11:17:47;15.00;;;11.90;;
67986;SDS011;54767;53.800;15.956;2022-08-19T11:20:14;14.40;;;12.30;;
67986;SDS011;54767;53.800;15.956;2022-08-19T11:22:42;15.50;;;11.70;;
67986;SDS011;54767;53.800;15.956;2022-08-19T11:25:09;15.50;;;12.10;;
67986;SDS011;54767;53.800;15.956;2022-08-19T11:27:38;15.40;;;12.30;;
67986;SDS011;54767;53.800;15.956;2022-08-19T11:30:10;13.90;;;12.00;;
67986;SDS011;54767;53.800;15.956;2022-08-19T11:32:40;13.90;;;11.40;;
67986;SDS011;54767;53.800;15.956;2022-08-19T11:35:14;13.10;;;11.10;;
67986;SDS011;54767;53.800;15.956;2022-08-19T11:37:42;12.90;;;11.50;;
67986;SDS011;54767;53.800;15.956;2022-08-19T11:40:09;13.10;;;11.40;;
67986;SDS011;54767;53.800;15.956;2022-08-19T11:42:37;12.20;;;11.00;;
67986;SDS011;54767;53.800;15.956;2022-08-19T11:45:23;13.00;;;11.60;;
67986;SDS011;54767;53.800;15.956;2022-08-19T11:47:52;14.20;;;11.70;;
67986;SDS011;54767;53.800;15.956;2022-08-19T11:50:20;15.20;;;11.60;;
67986;SDS011;54767;53.800;15.956;2022-08-19T11:52:49;13.60;;;10.80;;
67986;SDS011;54767;53.800;15.956;2022-08-19T11:55:17;13.40;;;12.00;;
67986;SDS011;54767;53.800;15.956;2022-08-19T11:57:46;14.20;;;11.90;;
67986;SDS011;54767;53.800;15.956;2022-08-19T12:00:13;13.70;;;11.30;;
67986;SDS011;54767;53.800;15.956;2022-08-19T12:02:40;13.90;;;12.20;;
67986;SDS011;54767;53.800;15.956;2022-08-19T12:05:07;12.80;;;11.50;;
67986;SDS011;54767;53.800;15.956;2022-08-19T12:07:39;15.10;;;12.10;;
67986;SDS011;54767;53.800;15.956;2022-08-19T12:12:36;14.20;;;12.30;;
67986;SDS011;54767;53.800;15.956;2022-08-19T12:15:09;12.80;;;11.40;;
67986;SDS011;54767;53.800;15.956;2022-08-19T12:17:37;16.20;;;11.60;;
67986;SDS011;54767;53.800;15.956;2022-08-19T12:20:05;13.70;;;11.20;;
67986;SDS011;54767;53.800;15.956;2022-08-19T12:22:38;13.70;;;11.30;;
67986;SDS011;54767;53.800;15.956;2022-08-19T12:25:08;13.00;;;11.30;;
67986;SDS011;54767;53.800;15.956;2022-08-19T12:27:37;14.00;;;11.50;;
67986;SDS011;54767;53.800;15.956;2022-08-19T12:30:09;12.90;;;11.40;;
67986;SDS011;54767;53.800;15.956;2022-08-19T12:32:38;13.10;;;11.00;;
67986;SDS011;54767;53.800;15.956;2022-08-19T12:35:06;13.10;;;11.00;;
67986;SDS011;54767;53.800;15.956;2022-08-19T12:37:35;12.80;;;10.60;;
67986;SDS011;54767;53.800;15.956;2022-08-19T12:40:03;12.00;;;10.70;;
67986;SDS011;54767;53.800;15.956;2022-08-19T12:42:31;14.40;;;11.00;;
67986;SDS011;54767;53.800;15.956;2022-08-19T12:45:03;14.70;;;11.30;;
67986;SDS011;54767;53.800;15.956;2022-08-19T12:47:36;14.30;;;11.00;;
67986;SDS011;54767;53.800;15.956;2022-08-19T12:50:12;12.60;;;10.70;;
67986;SDS011;54767;53.800;15.956;2022-08-19T12:52:40;12.10;;;10.80;;
67986;SDS011;54767;53.800;15.956;2022-08-19T12:55:09;12.50;;;10.70;;
67986;SDS011;54767;53.800;15.956;2022-08-19T12:57:37;12.00;;;10.50;;
67986;SDS011;54767;53.800;15.956;2022-08-19T13:02:42;13.20;;;11.20;;
67986;SDS011;54767;53.800;15.956;2022-08-19T13:05:19;14.30;;;10.80;;
67986;SDS011;54767;53.800;15.956;2022-08-19T13:07:51;12.00;;;10.70;;
67986;SDS011;54767;53.800;15.956;2022-08-19T13:17:21;17.90;;;11.10;;
67986;SDS011;54767;53.800;15.956;2022-08-19T13:19:57;11.80;;;10.60;;
67986;SDS011;54767;53.800;15.956;2022-08-19T13:22:40;12.70;;;10.70;;
67986;SDS011;54767;53.800;15.956;2022-08-19T13:25:08;13.60;;;11.20;;
67986;SDS011;54767;53.800;15.956;2022-08-19T13:27:46;13.90;;;10.60;;
67986;SDS011;54767;53.800;15.956;2022-08-19T13:30:21;16.00;;;11.30;;
67986;SDS011;54767;53.800;15.956;2022-08-19T13:33:42;13.60;;;11.10;;
67986;SDS011;54767;53.800;15.956;2022-08-19T13:40:26;13.60;;;10.70;;
67986;SDS011;54767;53.800;15.956;2022-08-19T13:43:05;12.90;;;10.90;;
67986;SDS011;54767;53.800;15.956;2022-08-19T13:45:53;14.90;;;11.10;;
67986;SDS011;54767;53.800;15.956;2022-08-19T13:48:25;12.50;;;10.90;;
67986;SDS011;54767;53.800;15.956;2022-08-19T13:53:20;12.40;;;10.90;;
67986;SDS011;54767;53.800;15.956;2022-08-19T13:55:48;11.70;;;10.40;;
67986;SDS011;54767;53.800;15.956;2022-08-19T13:58:16;12.80;;;11.50;;
67986;SDS011;54767;53.800;15.956;2022-08-19T14:00:44;13.00;;;11.30;;
67986;SDS011;54767;53.800;15.956;2022-08-19T14:03:12;12.20;;;10.60;;
67986;SDS011;54767;53.800;15.956;2022-08-19T14:05:40;12.00;;;10.80;;
67986;SDS011;54767;53.800;15.956;2022-08-19T14:08:07;12.30;;;11.00;;
67986;SDS011;54767;53.800;15.956;2022-08-19T14:10:34;13.30;;;10.90;;
67986;SDS011;54767;53.800;15.956;2022-08-19T14:13:01;12.80;;;11.60;;
67986;SDS011;54767;53.800;15.956;2022-08-19T14:15:30;13.10;;;11.60;;
67986;SDS011;54767;53.800;15.956;2022-08-19T14:17:58;14.30;;;11.70;;
67986;SDS011;54767;53.800;15.956;2022-08-19T14:20:26;14.70;;;11.80;;
67986;SDS011;54767;53.800;15.956;2022-08-19T14:22:55;13.30;;;11.80;;
67986;SDS011;54767;53.800;15.956;2022-08-19T14:25:23;12.70;;;11.00;;
67986;SDS011;54767;53.800;15.956;2022-08-19T14:27:53;13.00;;;11.40;;
67986;SDS011;54767;53.800;15.956;2022-08-19T14:30:22;14.80;;;11.60;;
67986;SDS011;54767;53.800;15.956;2022-08-19T14:32:55;13.30;;;11.90;;
67986;SDS011;54767;53.800;15.956;2022-08-19T14:35:29;13.40;;;11.70;;
67986;SDS011;54767;53.800;15.956;2022-08-19T14:38:01;15.10;;;11.50;;
67986;SDS011;54767;53.800;15.956;2022-08-19T14:40:32;15.30;;;12.30;;
67986;SDS011;54767;53.800;15.956;2022-08-19T14:43:02;13.70;;;11.30;;
67986;SDS011;54767;53.800;15.956;2022-08-19T14:45:31;14.20;;;12.50;;
67986;SDS011;54767;53.800;15.956;2022-08-19T14:48:06;14.90;;;11.90;;
67986;SDS011;54767;53.800;15.956;2022-08-19T14:50:45;15.20;;;12.40;;
67986;SDS011;54767;53.800;15.956;2022-08-19T14:53:13;13.70;;;12.10;;
67986;SDS011;54767;53.800;15.956;2022-08-19T14:55:40;12.80;;;10.80;;
67986;SDS011;54767;53.800;15.956;2022-08-19T14:58:56;13.10;;;11.00;;
67986;SDS011;54767;53.800;15.956;2022-08-19T15:02:40;13.40;;;11.70;;
67986;SDS011;54767;53.800;15.956;2022-08-19T15:05:08;14.60;;;12.50;;
67986;SDS011;54767;53.800;15.956;2022-08-19T15:07:36;15.30;;;12.20;;
67986;SDS011;54767;53.800;15.956;2022-08-19T15:10:05;14.70;;;11.30;;
67986;SDS011;54767;53.800;15.956;2022-08-19T15:12:47;14.00;;;11.40;;
67986;SDS011;54767;53.800;15.956;2022-08-19T15:15:22;14.70;;;11.50;;
67986;SDS011;54767;53.800;15.956;2022-08-19T15:18:01;12.50;;;11.20;;
67986;SDS011;54767;53.800;15.956;2022-08-19T15:20:29;14.30;;;11.70;;
67986;SDS011;54767;53.800;15.956;2022-08-19T15:22:57;14.70;;;12.10;;
67986;SDS011;54767;53.800;15.956;2022-08-19T15:25:28;14.00;;;12.40;;
67986;SDS011;54767;53.800;15.956;2022-08-19T15:27:55;17.20;;;11.80;;
67986;SDS011;54767;53.800;15.956;2022-08-19T15:38:17;13.10;;;10.40;;
67986;SDS011;54767;53.800;15.956;2022-08-19T15:41:01;12.00;;;10.70;;
67986;SDS011;54767;53.800;15.956;2022-08-19T15:44:09;11.50;;;10.30;;
67986;SDS011;54767;53.800;15.956;2022-08-19T15:46:39;13.10;;;10.60;;
67986;SDS011;54767;53.800;15.956;2022-08-19T15:49:10;11.90;;;10.60;;
67986;SDS011;54767;53.800;15.956;2022-08-19T15:51:40;11.30;;;10.10;;
67986;SDS011;54767;53.800;15.956;2022-08-19T15:54:16;13.10;;;10.80;;
67986;SDS011;54767;53.800;15.956;2022-08-19T15:56:56;12.90;;;10.90;;